createdAt,value
2022-08-17T00:00:34.437Z,12.43
2022-08-17T00:03:18.367Z,13.95
2022-08-17T00:05:56.665Z,12.63
2022-08-17T00:08:31.072Z,12.52
2022-08-17T00:10:59.201Z,11.55
2022-08-17T00:13:36.919Z,10.25
2022-08-17T00:16:14.532Z,10.32
2022-08-17T00:19:01.925Z,11.38
2022-08-17T00:21:49.179Z,11.25
2022-08-17T00:24:18.757Z,12.60
2022-08-17T00:26:47.274Z,11.35
2022-08-17T00:29:19.415Z,12.63
2022-08-17T00:31:48.397Z,9.98
2022-08-17T00:34:15.877Z,11.48
2022-08-17T00:36:43.128Z,12.65
2022-08-17T00:39:10.311Z,11.95
2022-08-17T00:41:37.727Z,11.50
2022-08-17T00:44:12.113Z,13.13
2022-08-17T00:46:42.381Z,11.30
2022-08-17T00:49:12.254Z,11.80
2022-08-17T00:51:46.650Z,10.00
2022-08-17T00:54:23.144Z,14.40
2022-08-17T00:56:57.461Z,12.40
2022-08-17T00:59:32.805Z,12.07
2022-08-17T01:02:00.955Z,13.00
2022-08-17T01:04:30.505Z,15.75
2022-08-17T01:06:58.680Z,12.18
2022-08-17T01:09:26.599Z,9.88
2022-08-17T01:11:54.169Z,9.98
2022-08-17T01:14:26.910Z,10.68
2022-08-17T01:16:56.568Z,11.93
2022-08-17T01:19:29.289Z,11.45
2022-08-17T01:22:11.794Z,11.68
2022-08-17T01:24:44.206Z,15.52
2022-08-17T01:27:14.926Z,14.00
2022-08-17T01:29:52.036Z,10.73
2022-08-17T01:32:20.024Z,13.75
2022-08-17T01:34:50.230Z,11.30
2022-08-17T01:37:21.275Z,15.82
2022-08-17T01:39:54.971Z,11.23
2022-08-17T01:42:52.563Z,11.30
2022-08-17T01:45:25.860Z,10.00
2022-08-17T01:47:54.992Z,9.68
2022-08-17T01:50:30.744Z,9.60
2022-08-17T01:53:09.340Z,11.38
2022-08-17T01:55:48.176Z,13.65
2022-08-17T01:58:15.837Z,16.52
2022-08-17T02:00:59.609Z,11.48
2022-08-17T02:03:29.992Z,13.10
2022-08-17T02:05:57.987Z,26.73
2022-08-17T02:08:37.105Z,30.80
2022-08-17T02:11:15.859Z,12.63
2022-08-17T02:13:45.348Z,16.08
2022-08-17T02:16:13.391Z,10.70
2022-08-17T02:18:41.498Z,12.27
2022-08-17T02:21:10.214Z,13.07
2022-08-17T02:23:42.444Z,13.18
2022-08-17T02:26:09.783Z,15.48
2022-08-17T02:28:53.704Z,11.15
2022-08-17T02:31:21.401Z,13.48
2022-08-17T02:34:04.005Z,12.50
2022-08-17T02:36:33.862Z,12.48
2022-08-17T02:39:07.621Z,13.68
2022-08-17T02:41:34.909Z,13.27
2022-08-17T02:44:02.431Z,12.55
2022-08-17T02:46:31.125Z,12.85
2022-08-17T02:48:59.607Z,12.77
2022-08-17T02:51:27.786Z,14.63
2022-08-17T02:54:05.344Z,12.13
2022-08-17T02:56:42.825Z,10.40
2022-08-17T02:59:10.089Z,12.75
2022-08-17T03:01:37.497Z,12.40
2022-08-17T03:04:05.149Z,13.02
2022-08-17T03:06:32.550Z,17.52
2022-08-17T03:08:59.829Z,13.73
2022-08-17T03:11:27.265Z,10.50
2022-08-17T03:13:54.775Z,11.35
2022-08-17T03:16:22.089Z,11.90
2022-08-17T03:18:49.371Z,13.15
2022-08-17T03:21:16.755Z,13.10
2022-08-17T03:23:44.006Z,13.45
2022-08-17T03:26:15.592Z,12.88
2022-08-17T03:28:43.604Z,15.25
2022-08-17T03:31:11.017Z,13.65
2022-08-17T03:33:38.329Z,11.45
2022-08-17T03:36:06.991Z,9.88
2022-08-17T03:38:38.883Z,12.85
2022-08-17T03:41:07.494Z,14.10
2022-08-17T03:43:34.897Z,10.45
2022-08-17T03:46:28.979Z,15.93
2022-08-17T03:49:26.430Z,11.60
2022-08-17T03:52:16.442Z,14.88
2022-08-17T03:55:14.696Z,15.35
2022-08-17T03:57:42.074Z,13.07
2022-08-17T04:00:10.018Z,10.32
2022-08-17T04:02:37.350Z,10.65
2022-08-17T04:05:05.054Z,11.55
2022-08-17T04:07:32.403Z,14.63
2022-08-17T04:10:00.163Z,16.73
2022-08-17T04:12:31.173Z,19.02
2022-08-17T04:14:59.142Z,19.52
2022-08-17T04:17:28.993Z,19.92
2022-08-17T04:19:56.961Z,22.67
2022-08-17T04:22:31.130Z,23.67
2022-08-17T04:25:05.015Z,25.88
2022-08-17T04:27:32.443Z,16.95
2022-08-17T04:29:59.809Z,21.70
2022-08-17T04:32:58.586Z,19.65
2022-08-17T04:35:21.732Z,22.40
2022-08-17T04:37:49.284Z,19.02
2022-08-17T04:40:37.508Z,20.73
2022-08-17T04:43:14.609Z,19.20
2022-08-17T04:45:51.312Z,18.50
2022-08-17T04:48:32.208Z,16.05
2022-08-17T04:51:11.002Z,17.35
2022-08-17T04:53:40.850Z,16.10
2022-08-17T04:56:11.719Z,14.82
2022-08-17T04:58:50.396Z,17.80
2022-08-17T05:01:23.793Z,20.50
2022-08-17T05:06:20.998Z,24.60
2022-08-17T05:08:48.242Z,16.92
2022-08-17T05:11:15.991Z,15.80
2022-08-17T05:13:43.628Z,15.65
2022-08-17T05:16:11.880Z,16.33
2022-08-17T05:18:39.289Z,17.40
2022-08-17T05:21:07.809Z,15.13
2022-08-17T05:23:43.111Z,17.50
2022-08-17T05:26:25.452Z,24.00
2022-08-17T05:28:55.533Z,15.35
2022-08-17T05:31:25.423Z,19.40
2022-08-17T05:33:53.401Z,17.17
2022-08-17T05:36:42.300Z,14.13
2022-08-17T05:39:08.536Z,17.02
2022-08-17T05:41:42.958Z,18.15
2022-08-17T05:44:10.222Z,17.38
2022-08-17T05:46:44.038Z,17.73
2022-08-17T05:49:15.696Z,16.58
2022-08-17T05:52:13.872Z,17.23
2022-08-17T05:54:55.669Z,15.13
2022-08-17T05:57:54.075Z,16.38
2022-08-17T06:00:30.240Z,15.30
2022-08-17T06:03:41.799Z,17.42
2022-08-17T06:06:41.048Z,16.98
2022-08-17T06:09:11.013Z,16.10
2022-08-17T06:11:53.559Z,17.48
2022-08-17T06:14:52.338Z,16.33
2022-08-17T06:17:24.073Z,16.65
2022-08-17T06:19:59.839Z,18.00
2022-08-17T06:22:33.973Z,17.38
2022-08-17T06:25:10.229Z,17.63
2022-08-17T06:27:53.847Z,17.40
2022-08-17T06:30:36.739Z,18.30
2022-08-17T06:33:37.785Z,18.52
2022-08-17T06:36:29.430Z,19.35
2022-08-17T06:39:33.011Z,15.95
2022-08-17T06:42:54.882Z,18.40
2022-08-17T06:45:22.828Z,17.88
2022-08-17T06:48:14.159Z,14.63
2022-08-17T06:53:48.946Z,16.67
2022-08-17T06:56:54.320Z,17.45
2022-08-17T06:59:55.025Z,15.93
2022-08-17T07:02:53.291Z,19.42
2022-08-17T07:05:27.269Z,15.80
2022-08-17T07:10:57.724Z,16.10
2022-08-17T07:14:04.874Z,16.45
2022-08-17T07:16:41.212Z,18.55
2022-08-17T07:19:10.905Z,18.85
2022-08-17T07:22:09.104Z,17.50
2022-08-17T07:24:59.706Z,16.73
2022-08-17T07:27:32.950Z,16.42
2022-08-17T07:30:10.967Z,18.10
2022-08-17T07:33:09.171Z,14.45
2022-08-17T07:35:48.264Z,15.60
2022-08-17T07:38:24.857Z,15.25
2022-08-17T07:41:03.261Z,16.83
2022-08-17T07:43:39.635Z,18.20
2022-08-17T07:46:51.602Z,15.07
2022-08-17T07:49:36.088Z,16.55
2022-08-17T07:52:50.594Z,21.13
2022-08-17T07:55:35.471Z,14.73
2022-08-17T07:58:03.708Z,15.10
2022-08-17T08:00:33.010Z,14.60
2022-08-17T08:03:34.380Z,16.73
2022-08-17T08:06:03.650Z,16.77
2022-08-17T08:08:38.184Z,14.48
2022-08-17T08:11:12.323Z,14.57
2022-08-17T08:13:45.129Z,14.13
2022-08-17T08:16:24.555Z,14.75
2022-08-17T08:19:02.555Z,16.45
2022-08-17T08:21:56.480Z,13.60
2022-08-17T08:24:37.064Z,12.90
2022-08-17T08:27:55.363Z,12.95
2022-08-17T08:30:23.628Z,14.05
2022-08-17T08:33:41.327Z,14.60
2022-08-17T08:37:14.545Z,12.65
2022-08-17T08:39:47.497Z,15.27
2022-08-17T08:43:04.940Z,14.43
2022-08-17T08:46:09.789Z,15.75
2022-08-17T08:49:11.962Z,13.20
2022-08-17T08:51:52.497Z,15.35
2022-08-17T08:55:05.341Z,19.83
2022-08-17T08:57:40.975Z,13.35
2022-08-17T09:00:17.533Z,16.15
2022-08-17T09:03:52.688Z,14.90
2022-08-17T09:06:51.285Z,14.38
2022-08-17T09:10:27.079Z,12.45
2022-08-17T09:13:54.391Z,14.68
2022-08-17T09:16:58.197Z,13.40
2022-08-17T09:19:49.331Z,13.77
2022-08-17T09:22:36.120Z,12.70
2022-08-17T09:25:28.482Z,11.88
2022-08-17T09:28:08.474Z,12.73
2022-08-17T09:30:47.555Z,14.93
2022-08-17T09:33:26.188Z,13.63
2022-08-17T09:35:57.686Z,10.90
2022-08-17T09:38:49.168Z,10.63
2022-08-17T09:41:38.952Z,11.55
2022-08-17T09:44:23.724Z,11.25
2022-08-17T09:47:25.725Z,12.73
2022-08-17T09:53:03.253Z,10.98
2022-08-17T09:55:51.912Z,11.45
2022-08-17T09:58:29.464Z,11.43
2022-08-17T10:01:33.336Z,14.63
2022-08-17T10:04:29.638Z,10.75
2022-08-17T10:07:15.793Z,12.60
2022-08-17T10:10:04.513Z,11.88
2022-08-17T10:12:53.311Z,11.05
2022-08-17T10:16:12.310Z,11.82
2022-08-17T10:18:47.557Z,10.60
2022-08-17T10:21:36.451Z,11.50
2022-08-17T10:25:21.638Z,14.77
2022-08-17T10:27:58.097Z,12.02
2022-08-17T10:30:29.195Z,10.50
2022-08-17T10:33:03.572Z,11.40
2022-08-17T10:35:49.644Z,11.20
2022-08-17T10:38:25.605Z,9.85
2022-08-17T10:41:27.156Z,11.02
2022-08-17T10:44:37.031Z,10.10
2022-08-17T10:47:08.608Z,8.90
2022-08-17T10:49:39.548Z,9.60
2022-08-17T10:52:28.154Z,8.75
2022-08-17T10:54:58.088Z,9.80
2022-08-17T10:57:34.477Z,11.00
2022-08-17T11:00:37.830Z,11.60
2022-08-17T11:03:20.572Z,12.98
2022-08-17T11:06:38.934Z,10.60
2022-08-17T11:09:23.185Z,9.77
2022-08-17T11:12:15.005Z,11.38
2022-08-17T11:15:14.834Z,9.43
2022-08-17T11:18:42.837Z,9.63
2022-08-17T11:21:47.667Z,9.20
2022-08-17T11:24:30.596Z,8.73
2022-08-17T11:27:30.181Z,9.40
2022-08-17T11:30:13.390Z,9.32
2022-08-17T11:32:54.811Z,8.10
2022-08-17T11:35:22.448Z,10.27
2022-08-17T11:38:28.558Z,9.02
2022-08-17T11:41:10.820Z,9.40
2022-08-17T11:43:43.476Z,10.18
2022-08-17T11:47:00.854Z,10.13
2022-08-17T11:50:10.990Z,9.20
2022-08-17T11:52:48.910Z,8.75
2022-08-17T11:55:38.429Z,8.95
2022-08-17T11:58:16.349Z,9.50
2022-08-17T12:00:46.647Z,8.75
2022-08-17T12:03:26.266Z,8.20
2022-08-17T12:06:04.882Z,8.73
2022-08-17T12:08:34.724Z,8.90
2022-08-17T12:11:19.013Z,9.00
2022-08-17T12:14:07.882Z,8.02
2022-08-17T12:16:35.345Z,10.68
2022-08-17T12:19:05.291Z,10.27
2022-08-17T12:22:33.396Z,9.88
2022-08-17T12:25:20.313Z,9.00
2022-08-17T12:28:04.766Z,8.98
2022-08-17T12:30:34.781Z,8.68
2022-08-17T12:33:02.655Z,10.25
2022-08-17T12:35:39.072Z,10.00
2022-08-17T12:38:26.878Z,9.82
2022-08-17T12:40:59.839Z,10.05
2022-08-17T12:43:32.975Z,8.35
2022-08-17T12:46:15.143Z,8.95
2022-08-17T12:48:59.400Z,9.77
2022-08-17T12:51:29.219Z,9.15
2022-08-17T12:53:57.047Z,9.95
2022-08-17T12:56:24.410Z,8.93
2022-08-17T12:58:53.600Z,10.32
2022-08-17T13:01:23.454Z,8.68
2022-08-17T13:03:54.802Z,9.23
2022-08-17T13:06:35.772Z,9.43
2022-08-17T13:09:35.868Z,10.55
2022-08-17T13:12:08.529Z,8.63
2022-08-17T13:14:36.249Z,9.27
2022-08-17T13:17:09.907Z,9.00
2022-08-17T13:19:50.187Z,9.38
2022-08-17T13:22:23.541Z,7.88
2022-08-17T13:25:08.484Z,7.75
2022-08-17T13:27:35.951Z,8.15
2022-08-17T13:30:12.208Z,8.93
2022-08-17T13:32:48.691Z,8.50
2022-08-17T13:35:45.931Z,8.40
2022-08-17T13:38:45.812Z,8.20
2022-08-17T13:41:35.742Z,8.10
2022-08-17T13:44:23.370Z,8.57
2022-08-17T13:46:57.117Z,9.98
2022-08-17T13:49:24.741Z,7.32
2022-08-17T13:52:33.861Z,8.10
2022-08-17T13:55:06.925Z,8.40
2022-08-17T13:57:35.561Z,7.88
2022-08-17T14:00:30.658Z,10.57
2022-08-17T14:03:04.062Z,8.40
2022-08-17T14:05:33.801Z,8.85
2022-08-17T14:08:06.805Z,9.45
2022-08-17T14:10:36.503Z,9.18
2022-08-17T14:13:05.022Z,8.30
2022-08-17T14:15:55.792Z,11.05
2022-08-17T14:18:42.035Z,10.20
2022-08-17T14:21:08.530Z,8.65
2022-08-17T14:23:36.834Z,9.63
2022-08-17T14:26:05.635Z,10.82
2022-08-17T14:28:33.084Z,10.32
2022-08-17T14:31:03.688Z,8.32
2022-08-17T14:33:30.920Z,10.10
2022-08-17T14:35:58.298Z,14.18
2022-08-17T14:38:25.575Z,8.52
2022-08-17T14:40:53.516Z,9.85
2022-08-17T14:43:21.079Z,9.32
2022-08-17T14:45:48.338Z,9.35
2022-08-17T14:48:15.963Z,8.77
2022-08-17T14:50:44.316Z,8.55
2022-08-17T14:53:16.179Z,9.50
2022-08-17T14:55:47.206Z,9.00
2022-08-17T14:58:15.932Z,10.48
2022-08-17T15:00:43.751Z,9.18
2022-08-17T15:03:11.869Z,7.90
2022-08-17T15:05:40.143Z,8.25
2022-08-17T15:08:08.603Z,10.05
2022-08-17T15:10:37.053Z,9.27
2022-08-17T15:13:04.757Z,8.57
2022-08-17T15:15:32.095Z,8.57
2022-08-17T15:18:00.077Z,8.93
2022-08-17T15:20:30.371Z,9.00
2022-08-17T15:22:59.036Z,10.43
2022-08-17T15:25:32.382Z,8.75
2022-08-17T15:28:01.295Z,8.75
2022-08-17T15:30:30.015Z,8.70
2022-08-17T15:32:59.427Z,12.50
2022-08-17T15:35:32.726Z,8.88
2022-08-17T15:38:10.583Z,10.05
2022-08-17T15:40:44.055Z,7.80
2022-08-17T15:43:23.319Z,9.02
2022-08-17T15:46:01.969Z,9.57
2022-08-17T15:48:43.933Z,11.57
2022-08-17T15:51:28.251Z,9.07
2022-08-17T15:54:00.376Z,9.38
2022-08-17T15:56:32.178Z,8.32
2022-08-17T15:59:00.194Z,8.98
2022-08-17T16:03:01.824Z,8.63
2022-08-17T16:04:30.382Z,8.82
2022-08-17T16:06:59.758Z,8.48
2022-08-17T16:09:27.776Z,8.35
2022-08-17T16:11:56.140Z,8.65
2022-08-17T16:14:33.711Z,9.38
2022-08-17T16:17:04.662Z,9.65
2022-08-17T16:19:33.393Z,9.75
2022-08-17T16:22:01.077Z,8.35
2022-08-17T16:24:28.427Z,9.63
2022-08-17T16:26:55.901Z,9.02
2022-08-17T16:29:23.302Z,10.70
2022-08-17T16:31:51.433Z,9.88
2022-08-17T16:34:19.106Z,8.88
2022-08-17T16:36:53.581Z,8.82
2022-08-17T16:39:29.434Z,8.52
2022-08-17T16:41:57.559Z,9.13
2022-08-17T16:44:31.827Z,8.77
2022-08-17T16:47:01.370Z,11.43
2022-08-17T16:49:37.382Z,10.02
2022-08-17T16:52:10.697Z,8.40
2022-08-17T16:54:43.745Z,10.68
2022-08-17T16:57:13.268Z,9.25
2022-08-17T16:59:44.901Z,8.23
2022-08-17T17:02:17.302Z,9.07
2022-08-17T17:05:19.301Z,9.77
2022-08-17T17:08:08.962Z,9.00
2022-08-17T17:10:50.104Z,11.02
2022-08-17T17:13:26.776Z,8.68
2022-08-17T17:16:01.360Z,8.57
2022-08-17T17:18:42.729Z,9.80
2022-08-17T17:21:15.205Z,9.52
2022-08-17T17:23:59.770Z,9.25
2022-08-17T17:26:49.683Z,8.57
2022-08-17T17:29:48.817Z,12.63
2022-08-17T17:32:41.594Z,10.50
2022-08-17T17:35:17.567Z,9.80
2022-08-17T17:37:46.780Z,9.95
2022-08-17T17:40:24.584Z,9.63
2022-08-17T17:42:55.514Z,10.07
2022-08-17T17:45:36.110Z,13.48
2022-08-17T17:48:03.708Z,10.27
2022-08-17T17:50:43.942Z,10.73
2022-08-17T17:53:41.835Z,10.98
2022-08-17T17:56:43.743Z,12.50
2022-08-17T17:59:23.001Z,10.10
2022-08-17T18:01:59.950Z,10.13
2022-08-17T18:04:36.279Z,12.55
2022-08-17T18:07:23.903Z,11.60
2022-08-17T18:10:19.567Z,12.13
2022-08-17T18:13:22.025Z,13.40
2022-08-17T18:15:55.741Z,12.65
2022-08-17T18:18:38.801Z,11.15
2022-08-17T18:21:16.967Z,11.97
2022-08-17T18:24:07.627Z,14.10
2022-08-17T18:26:37.884Z,11.20
2022-08-17T18:29:22.593Z,13.30
2022-08-17T18:32:19.777Z,10.00
2022-08-17T18:34:51.976Z,12.43
2022-08-17T18:37:49.372Z,13.60
2022-08-17T18:40:19.814Z,12.27
2022-08-17T18:43:11.517Z,13.05
2022-08-17T18:45:51.335Z,11.18
2022-08-17T18:51:40.629Z,13.18
2022-08-17T18:54:25.469Z,14.73
2022-08-17T18:56:56.783Z,15.30
2022-08-17T18:59:45.384Z,12.60
2022-08-17T19:02:22.083Z,16.98
2022-08-17T19:05:13.653Z,13.07
2022-08-17T19:07:48.167Z,12.60
2022-08-17T19:10:46.354Z,18.23
2022-08-17T19:13:24.372Z,12.32
2022-08-17T19:16:15.002Z,14.18
2022-08-17T19:19:15.043Z,13.02
2022-08-17T19:22:13.713Z,14.73
2022-08-17T19:25:16.931Z,12.93
2022-08-17T19:28:01.798Z,13.32
2022-08-17T19:30:30.933Z,13.15
2022-08-17T19:32:58.517Z,11.93
2022-08-17T19:35:46.135Z,15.75
2022-08-17T19:38:34.938Z,15.18
2022-08-17T19:41:30.036Z,13.95
2022-08-17T19:44:01.511Z,12.98
2022-08-17T19:46:50.052Z,13.07
2022-08-17T19:49:52.127Z,14.38
2022-08-17T19:53:47.385Z,12.10
2022-08-17T19:56:25.389Z,12.68
2022-08-17T19:59:51.627Z,14.80
2022-08-17T20:02:26.503Z,13.35
2022-08-17T20:05:01.483Z,12.75
2022-08-17T20:08:00.996Z,12.57
2022-08-17T20:11:01.744Z,12.63
2022-08-17T20:13:50.535Z,12.77
2022-08-17T20:16:19.931Z,14.52
2022-08-17T20:19:01.825Z,14.40
2022-08-17T20:21:53.285Z,13.90
2022-08-17T20:24:35.865Z,13.25
2022-08-17T20:27:12.083Z,12.02
2022-08-17T20:30:00.706Z,12.43
2022-08-17T20:32:52.023Z,11.70
2022-08-17T20:35:33.305Z,11.75
2022-08-17T20:38:12.275Z,11.45
2022-08-17T20:41:04.079Z,12.20
2022-08-17T20:43:34.583Z,11.95
2022-08-17T20:46:38.410Z,12.13
2022-08-17T20:49:15.043Z,14.20
2022-08-17T20:52:09.922Z,14.27
2022-08-17T20:54:54.350Z,17.45
2022-08-17T20:57:36.751Z,17.35
2022-08-17T21:00:17.037Z,12.80
2022-08-17T21:02:52.349Z,12.82
2022-08-17T21:05:59.836Z,11.65
2022-08-17T21:08:36.464Z,13.45
2022-08-17T21:12:02.788Z,12.05
2022-08-17T21:14:34.424Z,12.93
2022-08-17T21:17:19.560Z,13.77
2022-08-17T21:20:12.222Z,11.82
2022-08-17T21:23:05.304Z,11.63
2022-08-17T21:25:51.614Z,11.52
2022-08-17T21:28:36.902Z,14.95
2022-08-17T21:31:41.037Z,13.95
2022-08-17T21:34:17.139Z,12.57
2022-08-17T21:36:46.253Z,11.57
2022-08-17T21:39:24.231Z,12.73
2022-08-17T21:42:00.740Z,11.80
2022-08-17T21:44:46.373Z,12.27
2022-08-17T21:47:24.688Z,12.13
2022-08-17T21:49:54.210Z,12.48
2022-08-17T21:52:24.939Z,12.15
2022-08-17T21:54:58.179Z,11.52
2022-08-17T21:57:27.843Z,12.00
2022-08-17T22:00:01.897Z,11.40
2022-08-17T22:02:35.653Z,10.68
2022-08-17T22:07:51.028Z,12.30
2022-08-17T22:10:41.151Z,12.52
2022-08-17T22:13:24.338Z,12.68
2022-08-17T22:16:28.648Z,11.65
2022-08-17T22:18:58.128Z,12.93
2022-08-17T22:21:26.264Z,12.60
2022-08-17T22:24:21.718Z,12.70
2022-08-17T22:26:59.808Z,13.30
2022-08-17T22:29:58.630Z,11.88
2022-08-17T22:32:32.125Z,12.05
2022-08-17T22:35:27.115Z,13.20
2022-08-17T22:37:55.217Z,13.88
2022-08-17T22:40:32.905Z,11.57
2022-08-17T22:43:03.624Z,11.95
2022-08-17T22:45:31.396Z,11.82
2022-08-17T22:48:02.236Z,15.70
2022-08-17T22:50:33.214Z,12.02
2022-08-17T22:53:35.214Z,13.18
2022-08-17T22:56:20.733Z,12.88
2022-08-17T22:59:14.297Z,13.68
2022-08-17T23:01:45.363Z,11.38
2022-08-17T23:04:36.589Z,11.40
2022-08-17T23:07:04.114Z,11.77
2022-08-17T23:09:31.400Z,11.50
2022-08-17T23:11:59.565Z,11.43
2022-08-17T23:14:31.918Z,11.20
2022-08-17T23:16:59.858Z,12.02
2022-08-17T23:19:28.610Z,11.88
2022-08-17T23:21:57.654Z,12.02
2022-08-17T23:24:32.014Z,12.80
2022-08-17T23:26:59.405Z,13.77
2022-08-17T23:29:29.459Z,13.27
2022-08-17T23:32:01.333Z,14.88
2022-08-17T23:34:29.359Z,14.07
2022-08-17T23:36:56.682Z,11.70
2022-08-17T23:39:27.818Z,14.88
2022-08-17T23:41:59.417Z,12.23
2022-08-17T23:44:27.414Z,12.27
2022-08-17T23:46:55.203Z,13.88
2022-08-17T23:49:23.546Z,13.90
2022-08-17T23:51:52.495Z,12.43
2022-08-17T23:54:33.721Z,12.65
2022-08-17T23:57:02.784Z,14.63
2022-08-17T23:59:30.062Z,11.68
